Time;durP1;ratioP1;P1;durP2;ratioP2;P2;SDS_P1;SDS_P2;PMS_P1;PMS_P2;Temp;Humidity;BMP_temperature;BMP_pressure;BME280_temperature;BME280_humidity;BME280_pressure;Samples;Min_cycle;Max_cycle;Signal;HPM_P1;HPM_P2
2022/06/29 00:00:15;;;;;;;4.40;2.43;;;18.70;99.90;;;;;;5030515;28;20205;-37
2022/06/29 00:02:42;;;;;;;3.37;2.70;;;18.70;99.90;;;;;;5030486;28;20441;-37
2022/06/29 00:05:08;;;;;;;3.03;2.47;;;18.70;99.90;;;;;;5030576;28;20487;-37
2022/06/29 00:07:34;;;;;;;2.93;2.40;;;18.60;99.90;;;;;;5029781;28;20508;-38
2022/06/29 00:09:59;;;;;;;2.80;2.60;;;18.60;99.90;;;;;;5030176;28;20551;-37
2022/06/29 00:12:25;;;;;;;3.00;2.30;;;18.60;99.90;;;;;;5030251;28;20182;-37
2022/06/29 00:14:51;;;;;;;3.03;2.33;;;18.60;99.90;;;;;;5030440;28;20269;-37
2022/06/29 00:17:17;;;;;;;2.50;2.30;;;18.50;99.90;;;;;;5028540;28;20689;-37
2022/06/29 00:19:43;;;;;;;2.77;2.57;;;18.50;99.90;;;;;;5030404;28;20336;-37
2022/06/29 00:22:10;;;;;;;3.00;2.70;;;18.40;99.90;;;;;;5030526;28;20883;-37
2022/06/29 00:24:36;;;;;;;2.73;2.47;;;18.30;99.90;;;;;;5030288;28;20316;-38
2022/06/29 00:27:02;;;;;;;3.10;2.50;;;18.10;99.90;;;;;;5029578;28;20478;-37
2022/06/29 00:29:28;;;;;;;3.80;2.60;;;18.10;99.90;;;;;;5030194;28;20888;-37
2022/06/29 00:31:55;;;;;;;5.20;2.77;;;18.10;99.90;;;;;;5030248;28;20436;-37
2022/06/29 00:34:21;;;;;;;2.60;2.40;;;18.00;99.90;;;;;;5028424;28;20186;-37
2022/06/29 00:36:46;;;;;;;2.60;2.40;;;18.00;99.90;;;;;;5029415;28;20440;-37
2022/06/29 00:39:12;;;;;;;2.47;2.27;;;18.00;99.90;;;;;;5029797;28;20608;-37
2022/06/29 00:41:39;;;;;;;2.80;2.40;;;17.90;99.90;;;;;;5029914;28;20194;-37
2022/06/29 00:44:07;;;;;;;3.13;2.83;;;17.90;99.90;;;;;;5030043;28;20194;-38
2022/06/29 00:46:34;;;;;;;3.47;2.67;;;17.80;99.90;;;;;;5029619;28;20516;-37
2022/06/29 00:49:00;;;;;;;3.13;2.40;;;17.80;99.90;;;;;;5029788;28;20465;-37
2022/06/29 00:51:29;;;;;;;2.60;2.40;;;17.70;99.90;;;;;;5029939;28;20475;-37
2022/06/29 00:53:59;;;;;;;3.57;2.40;;;17.70;99.90;;;;;;5028376;28;21042;-37
2022/06/29 00:56:25;;;;;;;2.80;2.60;;;17.60;99.90;;;;;;5029808;28;20421;-38
2022/06/29 00:58:55;;;;;;;2.90;2.53;;;17.50;99.90;;;;;;5029176;28;20954;-37
2022/06/29 01:01:21;;;;;;;4.77;2.50;;;17.50;99.90;;;;;;5029682;28;20433;-37
2022/06/29 01:03:46;;;;;;;4.63;2.70;;;17.50;99.90;;;;;;5029760;28;20441;-37
2022/06/29 01:06:12;;;;;;;3.27;2.47;;;17.40;99.90;;;;;;5029636;28;20186;-37
2022/06/29 01:08:38;;;;;;;3.53;3.00;;;17.40;99.90;;;;;;5029061;28;20261;-37
2022/06/29 01:11:03;;;;;;;3.07;2.70;;;17.40;99.90;;;;;;5029512;28;20261;-37
2022/06/29 01:13:29;;;;;;;4.40;2.70;;;17.30;99.90;;;;;;5029718;28;20191;-37
2022/06/29 01:15:55;;;;;;;2.87;2.50;;;17.20;99.90;;;;;;5029641;28;20186;-37
2022/06/29 01:18:20;;;;;;;2.43;2.23;;;17.10;99.90;;;;;;5029146;28;20199;-37
2022/06/29 01:20:46;;;;;;;3.23;2.67;;;17.20;99.90;;;;;;5029671;28;20197;-37
2022/06/29 01:23:12;;;;;;;3.00;2.70;;;17.20;99.90;;;;;;5028720;28;20374;-37
2022/06/29 01:25:38;;;;;;;3.10;2.80;;;17.20;99.90;;;;;;5029639;28;20424;-37
2022/06/29 01:28:04;;;;;;;2.67;2.47;;;17.10;99.90;;;;;;5028867;28;20685;-37
2022/06/29 01:30:30;;;;;;;4.40;2.70;;;17.10;99.90;;;;;;5029589;28;20210;-37
2022/06/29 01:32:56;;;;;;;2.67;2.33;;;17.10;99.90;;;;;;5029116;28;20437;-37
2022/06/29 01:35:23;;;;;;;3.23;2.80;;;17.20;99.90;;;;;;5028205;28;20467;-37
2022/06/29 01:37:49;;;;;;;3.80;2.77;;;17.30;99.90;;;;;;5028470;28;20190;-37
2022/06/29 01:40:14;;;;;;;3.93;3.00;;;17.20;99.90;;;;;;5029578;28;20470;-37
2022/06/29 01:42:40;;;;;;;4.10;2.80;;;17.10;99.90;;;;;;5029299;28;20433;-37
2022/06/29 01:45:07;;;;;;;3.10;2.60;;;17.10;99.90;;;;;;5029376;28;20194;-37
2022/06/29 01:47:33;;;;;;;3.77;3.40;;;17.00;99.90;;;;;;5028686;28;20687;-37
2022/06/29 01:49:58;;;;;;;4.87;3.30;;;17.10;99.90;;;;;;5029239;28;20556;-37
2022/06/29 01:52:24;;;;;;;5.07;3.50;;;17.10;99.90;;;;;;5029171;28;20277;-37
2022/06/29 01:54:50;;;;;;;3.63;3.33;;;17.10;99.90;;;;;;5032843;28;20221;-37
2022/06/29 01:57:15;;;;;;;4.33;2.90;;;17.10;99.90;;;;;;5032394;28;20190;-37
2022/06/29 01:59:41;;;;;;;8.60;3.50;;;17.10;99.90;;;;;;5032821;28;20297;-37
2022/06/29 02:02:07;;;;;;;4.30;3.50;;;17.00;99.90;;;;;;5032682;28;20200;-37
2022/06/29 02:04:34;;;;;;;3.80;3.17;;;17.10;99.90;;;;;;5032792;28;20190;-37
2022/06/29 02:06:59;;;;;;;4.07;3.00;;;17.00;99.90;;;;;;5018680;28;20464;-37
2022/06/29 02:09:25;;;;;;;2.90;2.60;;;17.00;99.90;;;;;;5032714;28;20503;-37
2022/06/29 02:11:51;;;;;;;3.30;2.97;;;17.00;99.90;;;;;;5032644;28;20190;-37
2022/06/29 02:14:16;;;;;;;3.43;2.80;;;17.00;99.90;;;;;;5032767;28;20732;-37
2022/06/29 02:16:42;;;;;;;3.57;3.27;;;17.00;99.90;;;;;;5032062;28;20987;-37
2022/06/29 02:19:08;;;;;;;3.30;3.00;;;16.90;99.90;;;;;;5032596;28;20243;-37
2022/06/29 02:21:33;;;;;;;5.70;3.63;;;16.90;99.90;;;;;;5032753;28;20229;-38
2022/06/29 02:23:59;;;;;;;4.60;3.40;;;16.90;99.90;;;;;;5032604;28;20240;-37
2022/06/29 02:26:25;;;;;;;3.60;3.10;;;16.80;99.90;;;;;;5032376;28;20194;-37
2022/06/29 02:28:50;;;;;;;5.00;3.70;;;16.80;99.90;;;;;;5032014;28;20198;-37
2022/06/29 02:36:45;;;;;;;5.60;3.80;;;16.90;99.90;;;;;;5031464;28;20851;-37
2022/06/29 02:39:10;;;;;;;4.63;3.40;;;16.90;99.90;;;;;;5032214;28;20465;-37
2022/06/29 02:41:36;;;;;;;5.00;3.30;;;17.00;99.90;;;;;;5030987;28;20277;-37
2022/06/29 02:44:02;;;;;;;4.60;3.57;;;17.00;99.90;;;;;;5030702;28;20269;-37
2022/06/29 02:46:28;;;;;;;4.40;4.00;;;17.00;99.90;;;;;;5031875;28;20186;-37
2022/06/29 02:48:53;;;;;;;3.70;3.40;;;17.00;99.90;;;;;;5031266;28;20241;-37
2022/06/29 02:51:19;;;;;;;3.47;3.17;;;17.00;99.90;;;;;;5032023;28;20787;-37
2022/06/29 02:53:45;;;;;;;4.90;3.80;;;17.00;99.90;;;;;;5031815;28;20190;-37
2022/06/29 02:56:10;;;;;;;5.50;3.70;;;17.00;99.90;;;;;;5031847;28;20186;-37
2022/06/29 02:58:36;;;;;;;4.30;3.90;;;17.00;99.90;;;;;;5031122;28;20217;-37
2022/06/29 03:01:02;;;;;;;5.07;3.73;;;17.10;99.90;;;;;;5031502;28;20653;-37
2022/06/29 03:03:28;;;;;;;5.33;3.20;;;17.00;99.90;;;;;;5031892;28;20666;-37
2022/06/29 03:05:53;;;;;;;4.67;3.87;;;17.10;99.90;;;;;;5030559;28;20437;-37
2022/06/29 03:08:19;;;;;;;3.90;3.50;;;17.10;99.90;;;;;;5030972;28;20205;-37
2022/06/29 03:10:44;;;;;;;3.50;3.20;;;17.10;99.90;;;;;;5031569;28;20615;-37
2022/06/29 03:13:10;;;;;;;6.70;3.90;;;17.20;99.90;;;;;;5031387;28;20612;-37
2022/06/29 03:15:36;;;;;;;4.10;3.50;;;17.20;99.90;;;;;;5031254;28;20225;-37
2022/06/29 03:18:02;;;;;;;3.83;3.50;;;17.20;99.90;;;;;;5030842;28;20190;-37
2022/06/29 03:20:28;;;;;;;8.70;3.70;;;17.20;99.90;;;;;;5031469;28;20657;-37
2022/06/29 03:22:53;;;;;;;5.03;3.93;;;17.20;99.90;;;;;;5031574;28;20198;-37
2022/06/29 03:25:19;;;;;;;4.33;3.67;;;17.10;99.90;;;;;;5031343;28;20433;-37
2022/06/29 03:27:45;;;;;;;4.60;3.60;;;17.10;99.90;;;;;;5030483;28;20210;-37
2022/06/29 03:30:11;;;;;;;4.37;3.97;;;17.10;99.90;;;;;;5031077;28;20301;-37
2022/06/29 03:32:37;;;;;;;5.30;4.07;;;16.90;99.90;;;;;;5031118;28;20186;-37
2022/06/29 03:35:03;;;;;;;4.20;3.80;;;16.80;99.90;;;;;;5030276;28;20780;-37
2022/06/29 03:37:29;;;;;;;3.57;3.27;;;16.70;99.90;;;;;;5030242;28;20569;-37
2022/06/29 03:39:54;;;;;;;4.07;3.47;;;16.70;99.90;;;;;;5031199;28;20440;-37
2022/06/29 03:42:20;;;;;;;3.73;3.33;;;16.60;99.90;;;;;;5030834;28;20545;-37
2022/06/29 03:44:46;;;;;;;4.27;3.87;;;16.60;99.90;;;;;;5030930;28;20198;-37
2022/06/29 03:47:11;;;;;;;5.27;3.47;;;16.60;99.90;;;;;;5030079;28;20191;-37
2022/06/29 03:49:37;;;;;;;5.27;4.43;;;16.60;99.90;;;;;;5031042;28;20246;-37
2022/06/29 03:52:03;;;;;;;6.23;4.07;;;16.60;99.90;;;;;;5030788;28;20541;-37
2022/06/29 03:54:29;;;;;;;3.80;3.27;;;16.60;99.90;;;;;;5030974;28;20216;-37
2022/06/29 03:56:55;;;;;;;8.43;4.43;;;16.70;99.90;;;;;;5029939;28;20425;-37
2022/06/29 03:59:21;;;;;;;5.77;4.53;;;16.90;99.90;;;;;;5030354;28;20819;-37
2022/06/29 04:01:47;;;;;;;5.90;4.33;;;16.90;99.90;;;;;;5030722;28;20430;-37
2022/06/29 04:04:14;;;;;;;5.03;4.00;;;16.80;99.90;;;;;;5030574;28;20269;-37
2022/06/29 04:06:40;;;;;;;5.23;4.50;;;16.90;99.90;;;;;;5030080;28;20234;-37
2022/06/29 04:09:06;;;;;;;5.90;4.50;;;16.80;99.90;;;;;;5030432;28;20961;-37
2022/06/29 04:11:51;;;;;;;4.50;4.00;;;16.70;99.90;;;;;;5030436;28;20460;-37
2022/06/29 04:14:22;;;;;;;4.80;4.10;;;16.70;99.90;;;;;;5030774;28;20194;-37
2022/06/29 04:16:48;;;;;;;8.60;4.17;;;16.70;99.90;;;;;;5029375;28;20488;-37
2022/06/29 04:19:14;;;;;;;4.40;4.00;;;16.70;99.90;;;;;;5030460;28;20525;-37
2022/06/29 04:21:40;;;;;;;5.20;4.70;;;16.70;99.90;;;;;;5030594;28;20512;-37
2022/06/29 04:24:06;;;;;;;4.40;3.90;;;16.80;99.90;;;;;;5030285;28;20248;-37
2022/06/29 04:26:31;;;;;;;4.13;3.73;;;16.90;99.90;;;;;;5029758;28;20281;-37
2022/06/29 04:28:58;;;;;;;5.23;3.77;;;17.00;99.90;;;;;;5030097;28;20988;-37
2022/06/29 04:31:23;;;;;;;6.07;4.40;;;17.00;99.90;;;;;;5030173;28;20332;-37
2022/06/29 04:33:49;;;;;;;5.10;3.33;;;17.00;99.90;;;;;;5029275;28;20532;-37
2022/06/29 04:36:15;;;;;;;3.93;3.57;;;17.00;99.90;;;;;;5029656;28;20198;-37
2022/06/29 04:38:40;;;;;;;4.27;3.87;;;17.00;99.90;;;;;;5029457;28;20197;-37
2022/06/29 04:41:06;;;;;;;5.27;4.00;;;17.00;99.90;;;;;;5029628;28;20194;-37
2022/06/29 04:43:32;;;;;;;4.40;4.00;;;17.10;99.90;;;;;;5030054;28;20202;-37
2022/06/29 04:48:43;;;;;;;9.53;4.10;;;17.10;99.90;;;;;;5029020;28;20198;-37
2022/06/29 04:51:09;;;;;;;5.53;4.60;;;17.10;99.90;;;;;;5029796;28;20851;-37
2022/06/29 04:53:34;;;;;;;5.73;4.37;;;17.10;99.90;;;;;;5029599;28;20436;-37
2022/06/29 04:56:00;;;;;;;4.30;3.90;;;17.00;99.90;;;;;;5030088;28;20437;-37
2022/06/29 04:58:26;;;;;;;6.27;4.70;;;17.10;99.90;;;;;;5023336;28;20810;-37
2022/06/29 05:00:52;;;;;;;5.93;4.47;;;17.10;99.90;;;;;;5025696;28;20214;-37
2022/06/29 05:03:18;;;;;;;5.60;4.10;;;17.20;99.90;;;;;;5028397;28;20444;-37
2022/06/29 05:05:44;;;;;;;4.33;3.93;;;17.20;99.90;;;;;;5029419;28;20853;-37
2022/06/29 05:08:10;;;;;;;4.23;3.87;;;17.20;99.90;;;;;;5028663;28;20453;-37
2022/06/29 05:10:35;;;;;;;4.50;4.10;;;17.30;99.90;;;;;;5029667;28;20531;-36
2022/06/29 05:13:01;;;;;;;5.47;4.03;;;17.30;99.90;;;;;;5029673;28;20483;-37
2022/06/29 05:15:27;;;;;;;6.10;3.80;;;17.40;99.90;;;;;;5029740;28;20273;-36
2022/06/29 05:17:53;;;;;;;8.67;4.33;;;17.40;99.90;;;;;;5029081;28;20457;-37
2022/06/29 05:20:21;;;;;;;4.57;4.13;;;17.40;99.90;;;;;;5029590;28;20186;-37
2022/06/29 05:22:47;;;;;;;4.83;4.37;;;17.50;99.90;;;;;;5042524;28;21012;-37
2022/06/29 05:25:13;;;;;;;5.90;4.03;;;17.60;99.90;;;;;;5029616;28;20437;-37
2022/06/29 05:27:38;;;;;;;5.70;4.57;;;17.70;99.90;;;;;;5029466;28;20199;-37
2022/06/29 05:30:05;;;;;;;7.13;4.40;;;17.90;99.90;;;;;;5033487;28;20610;-37
2022/06/29 05:32:31;;;;;;;7.30;4.50;;;18.10;99.90;;;;;;5033382;28;20273;-37
2022/06/29 05:34:56;;;;;;;7.47;5.70;;;18.20;99.90;;;;;;5032394;28;20520;-36
2022/06/29 05:37:22;;;;;;;9.80;6.03;;;18.20;99.90;;;;;;5032416;28;20196;-37
2022/06/29 05:39:48;;;;;;;7.03;6.27;;;18.30;99.90;;;;;;5033425;28;20190;-37
2022/06/29 05:42:14;;;;;;;8.13;6.20;;;18.30;99.90;;;;;;5033105;28;20528;-37
2022/06/29 05:44:41;;;;;;;10.43;6.70;;;18.30;99.90;;;;;;5033470;28;20527;-37
2022/06/29 05:47:08;;;;;;;6.97;5.33;;;18.40;99.90;;;;;;5032405;28;20182;-37
2022/06/29 05:49:35;;;;;;;6.40;5.43;;;18.40;99.90;;;;;;5033192;28;20940;-37
2022/06/29 05:52:02;;;;;;;6.90;5.40;;;18.30;99.90;;;;;;5032836;28;20500;-37
2022/06/29 05:54:27;;;;;;;6.87;5.80;;;18.30;99.90;;;;;;5033276;28;20439;-37
2022/06/29 05:56:53;;;;;;;9.53;5.73;;;18.30;99.90;;;;;;5032113;28;20432;-37
2022/06/29 05:59:19;;;;;;;6.80;5.70;;;18.20;99.90;;;;;;5032904;28;20206;-37
2022/06/29 06:01:44;;;;;;;8.77;5.73;;;18.20;99.90;;;;;;5032785;28;20181;-37
2022/06/29 06:04:10;;;;;;;9.83;5.93;;;18.10;99.90;;;;;;5032711;28;20217;-37
2022/06/29 06:06:36;;;;;;;7.73;6.43;;;18.10;99.90;;;;;;5032157;28;20205;-37
2022/06/29 06:09:01;;;;;;;8.73;5.70;;;18.10;99.90;;;;;;5032051;28;20216;-37
2022/06/29 06:11:27;;;;;;;7.57;5.50;;;18.20;99.90;;;;;;5022567;28;20696;-37
2022/06/29 06:13:53;;;;;;;9.50;5.37;;;18.30;99.90;;;;;;5029026;28;20225;-37
2022/06/29 06:16:19;;;;;;;7.53;4.60;;;18.40;99.90;;;;;;5032459;28;20561;-37
2022/06/29 06:18:45;;;;;;;8.10;5.00;;;18.40;99.90;;;;;;5027505;28;20277;-37
2022/06/29 06:21:10;;;;;;;4.97;4.40;;;18.50;99.90;;;;;;5026332;28;20197;-37
2022/06/29 06:23:36;;;;;;;4.10;3.80;;;18.70;99.90;;;;;;5032730;28;20504;-37
2022/06/29 06:26:02;;;;;;;4.80;3.70;;;18.70;99.90;;;;;;5031837;28;20546;-37
2022/06/29 06:28:27;;;;;;;4.80;4.13;;;18.90;99.90;;;;;;5025324;28;20206;-37
2022/06/29 06:30:53;;;;;;;5.13;4.63;;;19.00;99.90;;;;;;5024199;28;20222;-37
2022/06/29 06:33:19;;;;;;;7.13;4.50;;;19.10;99.90;;;;;;5024227;28;20187;-37
2022/06/29 06:35:44;;;;;;;8.13;4.83;;;19.30;99.90;;;;;;5025587;28;20221;-37
2022/06/29 06:38:10;;;;;;;6.20;5.60;;;19.40;99.90;;;;;;5023441;28;20210;-37
2022/06/29 06:43:20;;;;;;;6.30;4.37;;;19.50;99.90;;;;;;5032010;28;20194;-37
2022/06/29 06:45:46;;;;;;;6.53;4.83;;;19.60;99.90;;;;;;5030402;28;20980;-37
2022/06/29 06:48:11;;;;;;;6.80;4.60;;;19.60;99.90;;;;;;5030739;28;20210;-37
2022/06/29 06:50:37;;;;;;;4.50;4.00;;;19.60;99.90;;;;;;5030385;28;20731;-37
2022/06/29 06:53:03;;;;;;;8.43;4.70;;;19.70;99.90;;;;;;5028600;28;20200;-37
2022/06/29 06:55:29;;;;;;;5.13;3.90;;;19.80;99.90;;;;;;5030938;28;20646;-37
2022/06/29 06:57:55;;;;;;;6.13;4.33;;;19.80;99.90;;;;;;5030838;28;20198;-37
2022/06/29 07:00:20;;;;;;;9.63;4.20;;;19.80;99.90;;;;;;5031072;28;20551;-37
2022/06/29 07:02:46;;;;;;;7.43;5.23;;;19.80;99.90;;;;;;5031411;28;20194;-37
2022/06/29 07:05:12;;;;;;;6.80;5.13;;;19.80;99.90;;;;;;5031732;28;20225;-37
2022/06/29 07:07:39;;;;;;;7.20;5.00;;;19.80;99.90;;;;;;5030941;28;20194;-37
2022/06/29 07:10:05;;;;;;;7.40;5.17;;;19.80;99.90;;;;;;5031626;28;20214;-37
2022/06/29 07:12:31;;;;;;;9.90;5.30;;;19.70;99.90;;;;;;5031480;28;20528;-38
2022/06/29 07:14:57;;;;;;;8.90;5.80;;;19.70;99.90;;;;;;5031598;28;20504;-38
2022/06/29 07:17:23;;;;;;;5.97;4.70;;;19.70;99.90;;;;;;5030682;28;20190;-37
2022/06/29 07:19:48;;;;;;;8.00;5.23;;;19.70;99.90;;;;;;5031485;28;20201;-37
2022/06/29 07:22:14;;;;;;;6.47;5.00;;;19.70;99.90;;;;;;5031369;28;20436;-37
2022/06/29 07:24:40;;;;;;;8.87;4.83;;;19.70;99.90;;;;;;5024366;28;20187;-37
2022/06/29 07:27:06;;;;;;;6.27;4.70;;;19.60;99.90;;;;;;5030672;28;20436;-38
2022/06/29 07:29:31;;;;;;;7.00;5.60;;;19.60;99.90;;;;;;5031077;28;20202;-37
2022/06/29 07:31:57;;;;;;;6.57;5.37;;;19.60;99.90;;;;;;5030928;28;20194;-37
2022/06/29 07:34:23;;;;;;;8.17;5.37;;;19.70;99.90;;;;;;5019728;28;20587;-37
2022/06/29 07:36:48;;;;;;;7.50;4.70;;;19.70;99.90;;;;;;5026902;28;20810;-37
2022/06/29 07:39:14;;;;;;;6.83;5.03;;;19.70;99.90;;;;;;5030466;28;20193;-37
2022/06/29 07:41:41;;;;;;;5.97;5.00;;;19.70;99.90;;;;;;5029416;28;20194;-37
2022/06/29 07:44:07;;;;;;;7.00;4.70;;;19.70;99.90;;;;;;5030465;28;20591;-37
2022/06/29 07:46:33;;;;;;;5.60;4.30;;;19.70;99.90;;;;;;5030184;28;20467;-38
2022/06/29 07:48:59;;;;;;;5.60;4.73;;;19.80;99.90;;;;;;5030891;28;20198;-37
2022/06/29 07:51:25;;;;;;;7.13;4.70;;;19.80;99.90;;;;;;5030177;28;20890;-37
2022/06/29 07:53:50;;;;;;;5.57;4.60;;;19.80;99.90;;;;;;5030842;28;20198;-37
2022/06/29 07:56:16;;;;;;;5.93;4.20;;;19.90;99.90;;;;;;5030687;28;20237;-37
2022/06/29 07:58:42;;;;;;;8.17;4.73;;;19.90;99.90;;;;;;5029975;28;20194;-37
2022/06/29 08:01:07;;;;;;;5.93;4.53;;;19.90;99.90;;;;;;5030350;28;20283;-38
2022/06/29 08:03:33;;;;;;;8.13;5.03;;;20.00;99.90;;;;;;5030647;28;20186;-38
2022/06/29 08:06:00;;;;;;;7.60;4.80;;;20.00;99.90;;;;;;5030604;28;20277;-37
2022/06/29 08:08:26;;;;;;;9.30;4.57;;;20.00;99.90;;;;;;5029785;28;20641;-37
2022/06/29 08:10:51;;;;;;;5.20;4.50;;;20.00;99.90;;;;;;5030417;28;20457;-37
2022/06/29 08:13:17;;;;;;;5.70;4.87;;;20.00;99.90;;;;;;5030330;28;20473;-37
2022/06/29 08:15:45;;;;;;;6.00;4.77;;;20.10;99.90;;;;;;5030287;28;20202;-37
2022/06/29 08:18:12;;;;;;;9.50;5.50;;;20.10;99.90;;;;;;5029689;28;20182;-38
2022/06/29 08:20:38;;;;;;;6.13;4.83;;;20.10;99.90;;;;;;5030370;28;20432;-37
2022/06/29 08:23:05;;;;;;;8.13;5.00;;;20.20;99.90;;;;;;5038056;28;20537;-37
2022/06/29 08:25:31;;;;;;;5.87;4.70;;;20.20;99.90;;;;;;5030206;28;20923;-37
2022/06/29 08:27:57;;;;;;;8.00;5.00;;;20.30;99.90;;;;;;5029404;28;20795;-37
2022/06/29 08:30:23;;;;;;;7.80;5.00;;;20.30;99.90;;;;;;5030051;28;20508;-37
2022/06/29 08:32:50;;;;;;;7.53;5.20;;;20.30;99.90;;;;;;5030218;28;20468;-37
2022/06/29 08:35:17;;;;;;;6.93;4.70;;;20.30;99.90;;;;;;5029151;28;20251;-37
2022/06/29 08:37:44;;;;;;;5.40;4.57;;;20.30;99.90;;;;;;5029509;28;20912;-38
2022/06/29 08:40:13;;;;;;;5.53;4.70;;;20.30;99.90;;;;;;5030049;28;21054;-37
2022/06/29 08:42:40;;;;;;;7.40;4.67;;;20.30;99.90;;;;;;5029622;28;20429;-38
2022/06/29 08:45:11;;;;;;;10.07;5.27;;;20.30;99.90;;;;;;5030098;28;20433;-37
2022/06/29 08:47:37;;;;;;;5.97;4.97;;;20.30;99.90;;;;;;5029414;28;20429;-37
2022/06/29 08:50:04;;;;;;;6.33;4.67;;;20.40;99.90;;;;;;5029835;28;20496;-37
2022/06/29 08:52:30;;;;;;;5.60;5.00;;;20.40;99.90;;;;;;5029739;28;20436;-37
2022/06/29 08:54:56;;;;;;;5.03;4.53;;;20.40;99.90;;;;;;5029852;28;20436;-37
2022/06/29 08:57:23;;;;;;;5.37;4.53;;;20.40;99.90;;;;;;5029045;28;20483;-38
2022/06/29 08:59:52;;;;;;;5.00;4.60;;;20.50;99.90;;;;;;5029865;28;20806;-38
2022/06/29 09:02:18;;;;;;;5.00;4.50;;;20.50;99.90;;;;;;5031262;28;20516;-37
2022/06/29 09:04:44;;;;;;;7.23;4.77;;;20.50;99.90;;;;;;5034025;28;20554;-37
2022/06/29 09:07:09;;;;;;;6.47;5.30;;;20.50;99.90;;;;;;5033188;28;20224;-38
2022/06/29 09:10:06;;;;;;;8.30;5.30;;;20.60;99.90;;;;;;5033809;28;20225;-37
2022/06/29 09:12:32;;;;;;;6.40;5.80;;;20.60;99.90;;;;;;5033932;28;20182;-37
2022/06/29 09:14:58;;;;;;;5.63;5.03;;;20.60;99.90;;;;;;5033830;28;20926;-37
2022/06/29 09:17:24;;;;;;;7.73;5.50;;;20.60;99.90;;;;;;5033226;28;20194;-38
2022/06/29 09:19:53;;;;;;;7.97;5.10;;;20.60;99.90;;;;;;5033815;28;20420;-37
2022/06/29 09:22:19;;;;;;;7.70;5.30;;;20.60;99.90;;;;;;5036547;28;20424;-37
2022/06/29 09:24:45;;;;;;;8.30;5.57;;;20.60;99.90;;;;;;5033569;28;20421;-37
2022/06/29 09:27:11;;;;;;;6.93;5.33;;;20.50;99.90;;;;;;5032915;28;20347;-37
2022/06/29 09:29:41;;;;;;;8.37;5.47;;;20.50;99.90;;;;;;5032197;28;20625;-37
2022/06/29 09:32:16;;;;;;;9.00;4.93;;;20.60;99.90;;;;;;5033514;28;20431;-37
2022/06/29 09:34:47;;;;;;;7.30;5.17;;;20.60;99.90;;;;;;5032227;28;20413;-37
2022/06/29 09:37:23;;;;;;;6.53;4.63;;;20.60;99.90;;;;;;5032894;28;20448;-37
2022/06/29 09:39:52;;;;;;;10.07;5.80;;;20.60;99.90;;;;;;5033403;28;20417;-38
2022/06/29 09:42:20;;;;;;;6.30;4.50;;;20.60;99.90;;;;;;5033178;28;20482;-37
2022/06/29 09:44:47;;;;;;;5.67;5.17;;;20.60;99.90;;;;;;5033042;28;20540;-37
2022/06/29 09:47:21;;;;;;;5.37;4.50;;;20.60;99.90;;;;;;5032294;28;20421;-37
2022/06/29 09:49:59;;;;;;;5.83;5.03;;;20.60;99.90;;;;;;5032830;28;20491;-37
2022/06/29 09:52:25;;;;;;;6.00;4.90;;;20.50;99.90;;;;;;5033117;28;20503;-37
2022/06/29 09:54:54;;;;;;;7.43;4.67;;;20.60;99.90;;;;;;5033072;28;20421;-37
2022/06/29 09:57:22;;;;;;;9.03;4.60;;;20.60;99.90;;;;;;5032384;28;20422;-37
2022/06/29 10:02:51;;;;;;;5.73;4.80;;;20.60;99.90;;;;;;5032890;28;20981;-37
2022/06/29 10:05:20;;;;;;;6.93;4.77;;;20.60;99.90;;;;;;5032877;28;20431;-37
2022/06/29 10:07:54;;;;;;;5.00;4.50;;;20.60;99.90;;;;;;5032198;28;20769;-37
2022/06/29 10:10:22;;;;;;;5.33;4.60;;;20.60;99.90;;;;;;5032527;28;20472;-37
2022/06/29 10:16:02;;;;;;;8.70;5.00;;;20.80;99.90;;;;;;5032613;28;20459;-37
2022/06/29 10:18:31;;;;;;;5.40;4.80;;;20.90;99.90;;;;;;5031773;28;20428;-38
2022/06/29 10:20:58;;;;;;;4.70;3.83;;;20.90;99.90;;;;;;5034009;28;20416;-37
2022/06/29 10:23:59;;;;;;;6.30;3.90;;;20.90;99.90;;;;;;5034162;28;20883;-37
2022/06/29 10:26:37;;;;;;;6.90;4.50;;;21.00;99.90;;;;;;5032424;28;20448;-37
2022/06/29 10:29:05;;;;;;;5.10;4.40;;;21.10;99.90;;;;;;5032059;28;21085;-38
2022/06/29 10:31:59;;;;;;;6.47;4.47;;;21.20;99.90;;;;;;5032370;28;20452;-37
2022/06/29 10:34:31;;;;;;;6.90;4.33;;;21.30;99.90;;;;;;5031455;28;20935;-37
2022/06/29 10:37:02;;;;;;;6.33;4.80;;;21.30;99.90;;;;;;5021230;28;20410;-38
2022/06/29 10:39:48;;;;;;;6.30;4.63;;;21.50;99.90;;;;;;5032209;28;20413;-37
2022/06/29 10:45:09;;;;;;;7.63;4.70;;;21.60;99.90;;;;;;5023319;28;20475;-38
2022/06/29 10:47:35;;;;;;;6.33;5.10;;;21.60;99.90;;;;;;5031093;28;20789;-38
2022/06/29 10:50:25;;;;;;;5.80;4.87;;;21.70;99.90;;;;;;5032278;28;20515;-37
2022/06/29 10:53:02;;;;;;;5.80;5.17;;;21.80;99.90;;;;;;5031926;28;20421;-38
2022/06/29 10:55:29;;;;;;;5.13;4.63;;;21.90;99.90;;;;;;5031989;28;20447;-38
2022/06/29 10:57:56;;;;;;;6.30;5.17;;;21.90;99.90;;;;;;5031195;28;20417;-38
2022/06/29 11:00:26;;;;;;;5.67;4.67;;;22.00;99.90;;;;;;5031636;28;20448;-38
2022/06/29 11:02:52;;;;;;;4.87;4.37;;;22.00;99.90;;;;;;5031814;28;20436;-37
2022/06/29 11:05:18;;;;;;;6.83;4.73;;;21.90;99.90;;;;;;5031894;28;20417;-37
2022/06/29 11:13:29;;;;;;;8.70;5.33;;;21.90;99.90;;;;;;5031617;28;20836;-37
2022/06/29 11:15:57;;;;;;;6.80;4.90;;;22.00;99.90;;;;;;5031600;28;20425;-37
2022/06/29 11:18:30;;;;;;;6.77;5.20;;;22.00;99.90;;;;;;5030997;28;20413;-37
2022/06/29 11:21:03;;;;;;;5.87;4.70;;;21.90;99.90;;;;;;5031089;28;20433;-38
2022/06/29 11:23:33;;;;;;;6.50;4.73;;;21.90;99.90;;;;;;5031711;28;20819;-37
2022/06/29 11:25:59;;;;;;;8.63;4.67;;;21.90;99.90;;;;;;5030232;28;20428;-37
2022/06/29 11:28:28;;;;;;;7.90;5.37;;;22.00;99.90;;;;;;5030764;28;20470;-38
2022/06/29 11:30:58;;;;;;;8.50;4.80;;;22.00;99.90;;;;;;5031276;28;20493;-37
2022/06/29 11:33:27;;;;;;;5.70;4.80;;;22.10;99.90;;;;;;5030148;28;20915;-37
2022/06/29 11:35:54;;;;;;;6.87;5.13;;;22.10;99.90;;;;;;5029687;28;20931;-38
2022/06/29 11:38:19;;;;;;;6.00;5.20;;;22.10;99.90;;;;;;5030659;28;20419;-37
2022/06/29 11:40:49;;;;;;;8.90;4.70;;;22.20;99.90;;;;;;5031230;28;20524;-37
2022/06/29 11:43:15;;;;;;;12.83;6.27;;;22.20;99.90;;;;;;5030926;28;20277;-37
2022/06/29 11:45:46;;;;;;;6.30;5.70;;;22.30;99.90;;;;;;5031044;28;20417;-37
2022/06/29 11:48:18;;;;;;;5.93;5.07;;;22.30;99.90;;;;;;5029905;28;20711;-38
2022/06/29 11:50:56;;;;;;;11.37;5.23;;;22.30;99.90;;;;;;5030813;28;20453;-38
2022/06/29 11:53:54;;;;;;;5.10;4.63;;;22.30;99.90;;;;;;5030885;28;20511;-38
2022/06/29 11:56:23;;;;;;;5.47;4.87;;;22.30;99.90;;;;;;5030718;28;20428;-38
2022/06/29 11:58:54;;;;;;;6.20;5.60;;;22.30;99.90;;;;;;5029792;28;20433;-37
2022/06/29 12:01:22;;;;;;;5.50;5.00;;;22.30;99.90;;;;;;5030982;28;20482;-38
2022/06/29 12:03:53;;;;;;;6.07;5.57;;;22.20;99.90;;;;;;5030613;28;20425;-38
2022/06/29 12:06:21;;;;;;;5.93;5.23;;;22.10;99.90;;;;;;5030749;28;20808;-37
2022/06/29 12:08:47;;;;;;;7.10;5.40;;;22.10;99.90;;;;;;5029686;28;20517;-37
2022/06/29 12:11:13;;;;;;;9.80;5.03;;;22.10;99.90;;;;;;5030568;28;20594;-38
2022/06/29 12:13:39;;;;;;;7.27;5.27;;;22.00;99.90;;;;;;5030436;28;20436;-37
2022/06/29 12:16:05;;;;;;;5.90;5.40;;;22.10;99.90;;;;;;5030547;28;20422;-38
2022/06/29 12:18:31;;;;;;;5.10;4.60;;;22.10;99.90;;;;;;5029861;28;20261;-36
2022/06/29 12:20:57;;;;;;;5.57;5.00;;;22.20;99.90;;;;;;5031702;28;20191;-37
2022/06/29 12:23:23;;;;;;;6.37;5.77;;;22.20;99.90;;;;;;5030901;28;20429;-36
2022/06/29 12:25:49;;;;;;;7.57;5.57;;;22.20;99.90;;;;;;5030083;28;20479;-37
2022/06/29 12:28:14;;;;;;;6.07;5.20;;;22.20;99.90;;;;;;5029489;28;20552;-37
2022/06/29 12:30:40;;;;;;;6.60;4.90;;;22.30;99.90;;;;;;5030216;28;20221;-39
2022/06/29 12:33:09;;;;;;;5.10;4.57;;;22.30;99.90;;;;;;5029379;28;20198;-37
2022/06/29 12:35:35;;;;;;;5.60;5.10;;;22.30;99.90;;;;;;5029968;28;20428;-37
2022/06/29 12:38:01;;;;;;;5.00;4.60;;;22.30;99.90;;;;;;5028838;28;20421;-36
2022/06/29 12:40:29;;;;;;;5.50;5.00;;;22.30;99.90;;;;;;5030156;28;20429;-37
2022/06/29 12:42:55;;;;;;;5.60;5.20;;;22.30;99.90;;;;;;5029951;28;20187;-37
2022/06/29 12:45:21;;;;;;;5.87;5.00;;;22.30;99.90;;;;;;5030132;28;20520;-37
2022/06/29 12:47:47;;;;;;;4.73;4.43;;;22.40;99.90;;;;;;5029166;28;20201;-37
2022/06/29 12:50:13;;;;;;;8.17;5.70;;;22.50;99.90;;;;;;5030062;28;20465;-36
2022/06/29 12:52:45;;;;;;;5.97;5.43;;;22.50;99.90;;;;;;5029643;28;20433;-37
2022/06/29 12:55:11;;;;;;;10.50;5.90;;;22.60;99.90;;;;;;5030174;28;20444;-36
2022/06/29 12:57:37;;;;;;;6.50;5.90;;;22.70;99.90;;;;;;5029183;28;20429;-37
2022/06/29 13:00:03;;;;;;;6.57;5.90;;;22.70;99.90;;;;;;5029729;28;20453;-37
2022/06/29 13:02:30;;;;;;;6.83;4.93;;;22.90;99.90;;;;;;5029870;28;20202;-37
2022/06/29 13:04:56;;;;;;;6.47;5.87;;;23.00;99.90;;;;;;5029858;28;20432;-37
2022/06/29 13:07:26;;;;;;;5.73;5.23;;;23.20;99.90;;;;;;5029356;28;21016;-37
2022/06/29 13:09:58;;;;;;;7.03;6.37;;;23.30;99.90;;;;;;5029713;28;20464;-37